Marina Del Rey, California
Current Conditions -  °F | °C
As of 5:59 AM on Friday 31 Oct 2014 (Local Time) from KSMO Reporting Station
Broken Clouds Broken Clouds  
Wind Chill: 62°   Ceiling: 3100
Heat Index: 62°   Visibility: 10mi
Dew Point: 57°   Wind: 0mph
Humidity: 84%   Direction: NA
Pressure: 29.95"   Gusts: NA
Location:  33.98°N, 118.45°W
Report Text: KSMO 311259Z AUTO 00000KT 10SM FEW024 BKN031 17/14 A2995 RMK AO2 T01670139 $
Loading
Personal Weather Stations






























Interactive Weather Map New forecast layout! Learn more

10-Day Weather Forecast

Advertisements
Track Severe Weather on mobile